Underwood, Iowa
Current Conditions -  °F | °C
As of 10:35 PM on Monday 20 Oct 2014 (Local Time) from KCBF Reporting Station
Clear Clear  
Wind Chill: 55°   Ceiling: Unl
Heat Index: 55°   Visibility: 10mi
Dew Point: 41°   Wind: 3mph
Humidity: 58%   Direction: 200°SSW
Pressure: 30.06"   Gusts: NA
Location:  41.39°N, 95.68°W
Report Text: KCBF 210335Z AUTO 20003KT 10SM CLR 13/05 A3006 RMK AO2
Loading
Personal Weather Stations






























Interactive Weather Map
Tropical Storm Tracking
New forecast layout! Learn more

10-Day Weather Forecast

Advertisements
Track Severe Weather on mobile